Time;durP1;ratioP1;P1;durP2;ratioP2;P2;SDS_P1;SDS_P2;PMS_P1;PMS_P2;Temp;Humidity;BMP_temperature;BMP_pressure;BME280_temperature;BME280_humidity;BME280_pressure;Samples;Min_cycle;Max_cycle;Signal;HPM_P1;HPM_P2
2022/01/22 00:00:19;;;;;;;2.07;1.30;;;6.10;99.90;;;;;;5074130;28;20617;-76
2022/01/22 00:02:46;;;;;;;1.67;1.00;;;6.10;99.90;;;;;;5085973;28;20178;-76
2022/01/22 00:05:13;;;;;;;1.37;1.27;;;6.10;99.90;;;;;;5075697;28;20174;-76
2022/01/22 00:07:39;;;;;;;1.40;1.30;;;6.10;99.90;;;;;;5078998;28;20178;-76
2022/01/22 00:10:11;;;;;;;2.80;1.30;;;6.00;99.90;;;;;;5079259;28;20198;-76
2022/01/22 00:15:09;;;;;;;1.07;1.00;;;6.10;99.90;;;;;;5082509;28;20228;-76
2022/01/22 00:17:35;;;;;;;1.20;0.97;;;6.10;99.90;;;;;;5081462;28;20243;-76
2022/01/22 00:20:01;;;;;;;0.97;0.97;;;6.10;99.90;;;;;;5078949;28;20190;-76
2022/01/22 00:22:30;;;;;;;1.33;1.10;;;6.10;99.90;;;;;;5084905;28;20243;-76
2022/01/22 00:25:01;;;;;;;1.17;1.10;;;6.10;99.90;;;;;;5083202;28;20182;-76
2022/01/22 00:27:27;;;;;;;1.33;1.23;;;6.10;99.90;;;;;;5081113;28;20182;-76
2022/01/22 00:29:54;;;;;;;1.20;1.10;;;6.00;99.90;;;;;;5079323;28;20213;-76
2022/01/22 00:32:20;;;;;;;1.20;1.10;;;6.00;99.90;;;;;;5085840;28;20212;-76
2022/01/22 00:34:45;;;;;;;1.50;1.17;;;6.10;99.90;;;;;;5087066;28;20182;-76
2022/01/22 00:37:11;;;;;;;2.10;1.40;;;6.10;99.90;;;;;;5085787;28;20174;-76
2022/01/22 00:39:37;;;;;;;1.60;1.50;;;6.10;99.90;;;;;;5072084;28;20247;-76
2022/01/22 00:42:10;;;;;;;1.20;1.10;;;6.10;99.90;;;;;;5080848;28;20186;-76
2022/01/22 00:44:35;;;;;;;1.50;1.33;;;6.10;99.90;;;;;;5069474;28;20195;-76
2022/01/22 00:47:02;;;;;;;1.60;1.50;;;6.10;99.90;;;;;;5079040;28;20551;-76
2022/01/22 00:49:29;;;;;;;2.30;1.33;;;6.10;99.90;;;;;;5079139;28;20221;-76
2022/01/22 00:51:55;;;;;;;1.70;1.60;;;6.10;99.90;;;;;;5074253;28;20186;-76
2022/01/22 00:54:21;;;;;;;1.60;1.50;;;6.10;99.90;;;;;;5075487;28;20179;-76
2022/01/22 00:56:46;;;;;;;1.37;1.27;;;6.10;99.90;;;;;;5075598;28;20194;-76
2022/01/22 00:59:12;;;;;;;1.50;1.40;;;6.10;99.90;;;;;;5074342;28;20205;-76
2022/01/22 01:01:37;;;;;;;1.43;1.33;;;6.10;99.90;;;;;;5080635;28;20186;-76
2022/01/22 01:04:04;;;;;;;1.40;1.30;;;6.10;99.90;;;;;;5076744;28;20218;-76
2022/01/22 01:06:30;;;;;;;1.70;1.60;;;6.10;99.90;;;;;;5080213;28;20579;-76
2022/01/22 01:08:56;;;;;;;1.60;1.50;;;6.10;99.90;;;;;;5080333;28;20229;-76
2022/01/22 01:11:25;;;;;;;2.00;1.80;;;6.20;99.90;;;;;;5079093;28;20204;-76
2022/01/22 01:13:56;;;;;;;1.90;1.53;;;6.20;99.90;;;;;;5079170;28;20247;-76
2022/01/22 01:16:44;;;;;;;1.70;1.50;;;6.20;99.90;;;;;;5074857;28;20244;-76
2022/01/22 01:33:06;;;;;;;1.70;1.60;;;6.20;99.90;;;;;;5079811;28;20335;-76
2022/01/22 01:35:35;;;;;;;2.07;1.87;;;6.20;99.90;;;;;;5085026;28;20186;-76
2022/01/22 01:38:02;;;;;;;2.33;2.10;;;6.20;99.90;;;;;;5069096;28;20178;-76
2022/01/22 01:40:30;;;;;;;3.37;2.20;;;6.20;99.90;;;;;;5070609;28;20207;-76
2022/01/22 01:45:30;;;;;;;2.10;1.67;;;6.20;99.90;;;;;;5079210;28;20683;-76
2022/01/22 01:48:00;;;;;;;2.73;1.90;;;6.20;99.90;;;;;;5074393;28;20694;-76
2022/01/22 01:50:26;;;;;;;2.40;2.20;;;6.30;99.90;;;;;;5077280;28;20199;-76
2022/01/22 01:53:20;;;;;;;5.67;2.00;;;6.30;99.90;;;;;;5071993;28;20277;-76
2022/01/22 01:56:04;;;;;;;2.10;1.90;;;6.30;99.90;;;;;;5074503;28;20197;-76
2022/01/22 01:58:30;;;;;;;2.33;1.57;;;6.30;99.90;;;;;;5074344;28;20158;-76
2022/01/22 02:01:00;;;;;;;2.73;2.23;;;6.30;99.90;;;;;;5072213;28;20259;-76
2022/01/22 02:03:26;;;;;;;2.77;2.40;;;6.40;99.90;;;;;;5086494;28;20194;-76
2022/01/22 02:05:52;;;;;;;3.13;1.77;;;6.40;99.90;;;;;;5079088;28;20186;-76
2022/01/22 02:08:19;;;;;;;4.60;2.07;;;6.50;99.90;;;;;;5079902;28;20183;-76
2022/01/22 02:10:54;;;;;;;3.80;1.90;;;6.50;99.90;;;;;;5076380;28;20239;-76
2022/01/22 02:24:34;;;;;;;5.27;1.90;;;6.60;99.90;;;;;;5078932;28;20252;-76
2022/01/22 02:27:00;;;;;;;3.87;1.67;;;6.60;99.90;;;;;;5080947;28;20203;-76
2022/01/22 02:29:25;;;;;;;3.70;1.70;;;6.60;99.90;;;;;;5085039;28;20202;-76
2022/01/22 02:34:44;;;;;;;5.93;2.43;;;6.70;99.90;;;;;;5075203;28;20259;-76
2022/01/22 02:37:14;;;;;;;3.77;1.90;;;6.70;99.90;;;;;;5070036;28;20183;-76
2022/01/22 02:40:00;;;;;;;5.03;2.23;;;6.70;99.90;;;;;;5069844;28;20561;-76
2022/01/22 02:42:32;;;;;;;8.50;2.47;;;6.70;99.90;;;;;;5077265;28;20198;-76
2022/01/22 02:44:58;;;;;;;6.93;2.77;;;6.70;99.90;;;;;;5067804;28;20199;-76
2022/01/22 02:47:23;;;;;;;6.63;2.90;;;6.70;99.90;;;;;;5079037;28;20186;-76
2022/01/22 02:49:49;;;;;;;4.77;2.43;;;6.70;99.90;;;;;;5076740;28;20194;-76
2022/01/22 02:52:17;;;;;;;5.50;2.20;;;6.70;99.90;;;;;;5077067;28;20221;-76
2022/01/22 02:54:43;;;;;;;3.90;2.10;;;6.70;99.90;;;;;;5082279;28;20182;-76
2022/01/22 02:57:10;;;;;;;7.17;2.30;;;6.70;99.90;;;;;;5079852;28;20242;-76
2022/01/22 02:59:36;;;;;;;6.30;2.40;;;6.70;99.90;;;;;;5079297;28;20748;-76
2022/01/22 03:02:03;;;;;;;2.57;1.93;;;6.70;99.90;;;;;;5080613;28;20178;-76
2022/01/22 03:04:29;;;;;;;3.80;1.83;;;6.70;99.90;;;;;;5088017;28;20240;-76
2022/01/22 03:06:55;;;;;;;4.03;1.83;;;6.70;99.90;;;;;;5082003;28;20635;-76
2022/01/22 03:09:27;;;;;;;3.07;1.90;;;6.70;99.90;;;;;;5083391;28;20578;-76
2022/01/22 03:27:58;;;;;;;5.83;2.13;;;6.70;99.90;;;;;;5084332;28;20176;-76
2022/01/22 03:30:24;;;;;;;4.03;2.40;;;6.70;99.90;;;;;;5087350;28;20190;-76
2022/01/22 03:32:53;;;;;;;5.17;2.83;;;6.70;99.90;;;;;;5083475;28;20206;-76
2022/01/22 03:37:51;;;;;;;6.03;2.57;;;6.80;99.90;;;;;;5083071;28;20190;-74
2022/01/22 03:40:21;;;;;;;4.40;2.50;;;6.80;99.90;;;;;;5071883;28;20225;-74
2022/01/22 03:42:47;;;;;;;6.23;2.10;;;6.80;99.90;;;;;;5079628;28;20186;-75
2022/01/22 03:45:14;;;;;;;6.57;2.70;;;6.80;99.90;;;;;;5077936;28;20275;-74
2022/01/22 03:47:40;;;;;;;7.93;2.60;;;6.70;99.90;;;;;;5081211;28;20178;-74
2022/01/22 03:50:07;;;;;;;5.07;2.40;;;6.70;99.90;;;;;;5076020;28;20194;-75
2022/01/22 03:52:33;;;;;;;5.57;2.30;;;6.80;99.90;;;;;;5073488;28;20297;-74
2022/01/22 03:54:58;;;;;;;6.93;2.40;;;6.70;99.90;;;;;;5073354;28;20270;-74
2022/01/22 03:57:25;;;;;;;5.93;2.03;;;6.70;99.90;;;;;;5080850;28;20185;-75
2022/01/22 03:59:53;;;;;;;4.13;2.17;;;6.70;99.90;;;;;;5080036;28;20205;-75
2022/01/22 04:05:04;;;;;;;4.80;1.90;;;6.70;99.90;;;;;;5082008;28;20205;-74
2022/01/22 04:10:17;;;;;;;2.27;1.30;;;6.70;99.90;;;;;;5079135;28;20201;-75
2022/01/22 04:12:52;;;;;;;4.13;1.90;;;6.80;99.90;;;;;;5079880;28;20179;-74
2022/01/22 04:15:23;;;;;;;4.30;1.53;;;6.70;99.90;;;;;;5080698;28;20309;-74
2022/01/22 04:25:55;;;;;;;4.50;1.37;;;6.70;99.90;;;;;;5086795;28;20181;-74
2022/01/22 04:28:21;;;;;;;7.73;1.27;;;6.70;99.90;;;;;;5081325;28;20178;-74
2022/01/22 04:30:47;;;;;;;5.00;1.50;;;6.70;99.90;;;;;;5085128;28;20208;-74
2022/01/22 04:33:12;;;;;;;4.80;1.53;;;6.70;99.90;;;;;;5087251;28;20198;-75
2022/01/22 04:35:38;;;;;;;3.73;1.20;;;6.70;99.90;;;;;;5073203;28;20246;-74
2022/01/22 04:38:04;;;;;;;3.37;1.00;;;6.70;99.90;;;;;;5077662;28;20183;-74
2022/01/22 04:40:29;;;;;;;4.10;1.10;;;6.70;99.90;;;;;;5073757;28;20202;-74
2022/01/22 04:42:56;;;;;;;3.70;1.23;;;6.70;99.90;;;;;;5078149;28;20179;-74
2022/01/22 04:45:38;;;;;;;4.80;1.20;;;6.70;99.90;;;;;;5075706;28;20188;-74
2022/01/22 04:49:10;;;;;;;5.03;1.07;;;6.70;99.90;;;;;;5072846;28;20207;-75
2022/01/22 04:56:27;;;;;;;5.17;0.90;;;6.70;99.90;;;;;;5078430;28;20192;-74
2022/01/22 04:58:53;;;;;;;2.23;0.73;;;6.70;99.90;;;;;;5078591;28;20293;-74
2022/01/22 05:01:18;;;;;;;1.90;0.93;;;6.70;99.90;;;;;;5081677;28;20279;-74
2022/01/22 05:03:44;;;;;;;5.03;2.00;;;6.70;99.90;;;;;;5080185;28;20230;-74
2022/01/22 05:06:10;;;;;;;3.03;1.60;;;6.70;99.90;;;;;;5079014;28;20188;-74
2022/01/22 05:08:35;;;;;;;2.43;1.30;;;6.80;99.90;;;;;;5084586;28;20174;-74
2022/01/22 05:11:01;;;;;;;1.73;1.07;;;6.80;99.90;;;;;;5080691;28;20202;-74
2022/01/22 05:13:26;;;;;;;1.97;1.20;;;6.70;99.90;;;;;;5082990;28;20191;-74
2022/01/22 05:15:52;;;;;;;1.70;1.17;;;6.70;99.90;;;;;;5081693;28;20191;-74
2022/01/22 05:18:18;;;;;;;2.00;1.23;;;6.80;99.90;;;;;;5082872;28;20181;-74
2022/01/22 05:20:54;;;;;;;1.13;1.03;;;6.80;99.90;;;;;;5081193;28;20238;-74
2022/01/22 05:23:23;;;;;;;2.67;1.30;;;6.80;99.90;;;;;;5083330;28;20245;-74
2022/01/22 05:25:56;;;;;;;2.20;1.23;;;6.70;99.90;;;;;;5085405;28;20265;-74
2022/01/22 05:31:20;;;;;;;2.50;1.10;;;6.70;99.90;;;;;;5088280;28;20244;-74
2022/01/22 05:39:14;;;;;;;2.57;1.50;;;6.70;99.90;;;;;;5073541;28;20197;-74
2022/01/22 05:41:40;;;;;;;2.43;1.40;;;6.70;99.90;;;;;;5072092;28;20187;-74
2022/01/22 05:44:06;;;;;;;3.03;0.97;;;6.70;99.90;;;;;;5073681;28;20209;-74
2022/01/22 05:46:33;;;;;;;1.77;0.90;;;6.70;99.90;;;;;;5070822;28;20170;-74
2022/01/22 05:48:58;;;;;;;1.80;0.83;;;6.70;99.90;;;;;;5073820;28;20178;-74
2022/01/22 05:51:24;;;;;;;2.30;1.00;;;6.70;99.90;;;;;;5071469;28;20213;-74
2022/01/22 05:59:44;;;;;;;2.13;0.90;;;6.70;99.90;;;;;;5008635;28;20283;-74
2022/01/22 06:02:15;;;;;;;2.73;1.10;;;6.60;99.90;;;;;;5067170;28;20191;-74
2022/01/22 06:04:41;;;;;;;3.20;1.17;;;6.60;99.90;;;;;;5074511;28;20210;-75
2022/01/22 06:07:08;;;;;;;3.40;1.27;;;6.60;99.90;;;;;;5080012;28;20186;-74
2022/01/22 06:09:37;;;;;;;3.93;1.00;;;6.60;99.90;;;;;;5078693;28;20202;-74
2022/01/22 06:14:30;;;;;;;1.77;0.70;;;6.60;99.90;;;;;;5081115;28;20183;-74
2022/01/22 06:16:56;;;;;;;2.80;0.70;;;6.60;99.90;;;;;;5075244;28;20189;-74
2022/01/22 06:19:21;;;;;;;4.70;1.40;;;6.50;99.90;;;;;;5085630;28;20210;-74
2022/01/22 06:21:50;;;;;;;1.77;0.90;;;6.50;99.90;;;;;;5082993;28;20186;-74
2022/01/22 06:24:16;;;;;;;2.23;0.60;;;6.60;99.90;;;;;;5086112;28;20239;-74
2022/01/22 06:26:41;;;;;;;3.13;0.80;;;6.60;99.90;;;;;;5082976;28;20187;-74
2022/01/22 06:29:07;;;;;;;2.93;0.80;;;6.60;99.90;;;;;;5087234;28;20174;-74
2022/01/22 06:31:33;;;;;;;2.70;1.40;;;6.50;99.90;;;;;;5087374;28;20193;-74
2022/01/22 06:33:58;;;;;;;3.33;1.07;;;6.50;99.90;;;;;;5088059;28;20245;-74
2022/01/22 06:36:25;;;;;;;2.47;0.80;;;6.50;99.90;;;;;;5085903;28;20270;-74
2022/01/22 06:38:56;;;;;;;3.30;0.83;;;6.50;99.90;;;;;;5087433;28;20178;-74
2022/01/22 06:44:07;;;;;;;3.10;0.90;;;6.50;99.90;;;;;;5077332;28;20209;-74
2022/01/22 06:46:33;;;;;;;3.27;1.23;;;6.50;99.90;;;;;;5073524;28;20174;-74
2022/01/22 06:48:58;;;;;;;2.70;1.30;;;6.50;99.90;;;;;;5073413;28;20171;-74
2022/01/22 06:51:26;;;;;;;4.00;1.10;;;6.50;99.90;;;;;;5074757;28;20194;-74
2022/01/22 06:53:53;;;;;;;3.40;1.33;;;6.50;99.90;;;;;;5077642;28;20197;-74
2022/01/22 06:56:19;;;;;;;5.27;1.60;;;6.50;99.90;;;;;;5078250;28;20190;-74
2022/01/22 06:58:45;;;;;;;3.63;1.40;;;6.50;99.90;;;;;;5076929;28;20194;-75
2022/01/22 07:01:11;;;;;;;2.17;1.30;;;6.40;99.90;;;;;;5073226;28;20202;-74
2022/01/22 07:03:36;;;;;;;2.63;1.23;;;6.40;99.90;;;;;;5081143;28;20678;-74
2022/01/22 07:06:02;;;;;;;2.60;1.60;;;6.40;99.90;;;;;;5081515;28;20175;-74
2022/01/22 07:08:28;;;;;;;3.37;1.63;;;6.50;99.90;;;;;;5078195;28;20266;-74
2022/01/22 07:10:54;;;;;;;3.17;1.50;;;6.50;99.90;;;;;;5082605;28;20282;-74
2022/01/22 07:13:20;;;;;;;2.60;1.40;;;6.50;99.90;;;;;;5084232;28;20555;-74
2022/01/22 07:15:45;;;;;;;3.10;1.33;;;6.40;99.90;;;;;;5086592;28;20175;-74
2022/01/22 07:18:13;;;;;;;4.77;1.67;;;6.50;99.90;;;;;;5083731;28;20261;-74
2022/01/22 07:20:40;;;;;;;2.20;1.50;;;6.40;99.90;;;;;;5081026;28;20199;-74
2022/01/22 07:25:45;;;;;;;3.27;1.60;;;6.40;99.90;;;;;;5089091;28;20185;-74
2022/01/22 07:28:11;;;;;;;6.27;1.60;;;6.40;99.90;;;;;;5084045;28;20343;-74
2022/01/22 07:30:39;;;;;;;4.90;1.57;;;6.40;99.90;;;;;;5085472;28;20228;-74
2022/01/22 07:33:05;;;;;;;1.60;1.30;;;6.50;99.90;;;;;;5088448;28;20235;-74
2022/01/22 07:35:34;;;;;;;3.37;1.60;;;6.40;99.90;;;;;;5073959;28;20190;-75
2022/01/22 07:38:01;;;;;;;4.23;1.40;;;6.40;99.90;;;;;;5080951;28;20274;-74
2022/01/22 07:40:26;;;;;;;3.53;1.13;;;6.40;99.90;;;;;;5073000;28;20724;-74
2022/01/22 07:42:52;;;;;;;1.97;1.50;;;6.40;99.90;;;;;;5072164;28;20278;-74
2022/01/22 07:45:18;;;;;;;1.57;1.27;;;6.40;99.90;;;;;;5076536;28;20172;-76
2022/01/22 07:47:44;;;;;;;1.47;1.30;;;6.40;99.90;;;;;;5078076;28;20183;-74
2022/01/22 07:50:09;;;;;;;1.67;1.40;;;6.40;99.90;;;;;;5077376;28;20217;-74
2022/01/22 07:52:35;;;;;;;4.83;1.70;;;6.30;99.90;;;;;;5075353;28;20182;-74
2022/01/22 07:55:02;;;;;;;3.90;1.60;;;6.30;99.90;;;;;;5077129;28;20183;-74
2022/01/22 07:57:28;;;;;;;2.60;1.60;;;6.30;99.90;;;;;;5078623;28;20170;-74
2022/01/22 07:59:53;;;;;;;3.47;1.90;;;6.40;99.90;;;;;;5078520;28;20641;-74
2022/01/22 08:02:19;;;;;;;2.73;1.70;;;6.30;99.90;;;;;;5078093;28;20206;-74
2022/01/22 08:04:44;;;;;;;2.00;1.80;;;6.30;99.90;;;;;;5078189;28;20219;-74
2022/01/22 08:07:10;;;;;;;3.10;1.60;;;6.30;99.90;;;;;;5080811;28;20170;-74
2022/01/22 08:09:36;;;;;;;3.00;1.93;;;6.40;99.90;;;;;;5081098;28;20278;-74
2022/01/22 08:12:02;;;;;;;3.37;2.10;;;6.40;99.90;;;;;;5084779;28;20659;-74
2022/01/22 08:14:28;;;;;;;3.50;2.17;;;6.40;99.90;;;;;;5085371;28;20186;-74
2022/01/22 08:16:54;;;;;;;3.03;2.27;;;6.40;99.90;;;;;;5084411;28;20186;-74
2022/01/22 08:19:20;;;;;;;3.70;2.03;;;6.40;99.90;;;;;;5082665;28;20657;-74
2022/01/22 08:21:46;;;;;;;2.73;1.97;;;6.40;99.90;;;;;;5078270;28;20186;-74
2022/01/22 08:24:14;;;;;;;3.53;2.00;;;6.40;99.90;;;;;;5085882;28;20209;-74
2022/01/22 08:27:03;;;;;;;2.63;1.93;;;6.40;99.90;;;;;;5086840;28;20650;-74
2022/01/22 08:29:26;;;;;;;4.33;1.90;;;6.40;99.90;;;;;;5074594;28;20198;-74
2022/01/22 08:32:04;;;;;;;3.47;2.03;;;6.40;99.90;;;;;;5083285;28;20194;-74
2022/01/22 08:37:13;;;;;;;4.10;2.00;;;6.40;99.90;;;;;;5088786;28;20197;-74
2022/01/22 08:39:39;;;;;;;3.40;1.90;;;6.50;99.90;;;;;;5075692;28;20602;-74
2022/01/22 08:42:06;;;;;;;2.87;1.90;;;6.40;99.90;;;;;;5077601;28;20193;-75
2022/01/22 08:44:32;;;;;;;6.13;2.00;;;6.50;99.90;;;;;;5077854;28;20198;-74
2022/01/22 08:46:57;;;;;;;2.73;1.70;;;6.50;99.90;;;;;;5075494;28;20178;-74
2022/01/22 08:49:24;;;;;;;4.23;1.97;;;6.50;99.90;;;;;;5073840;28;20205;-74
2022/01/22 08:51:49;;;;;;;2.50;2.00;;;6.50;99.90;;;;;;5072825;28;20764;-74
2022/01/22 08:54:15;;;;;;;3.47;1.83;;;6.50;99.90;;;;;;5083074;28;20272;-74
2022/01/22 08:56:41;;;;;;;3.97;2.40;;;6.50;99.90;;;;;;5076582;28;20187;-75
2022/01/22 08:59:08;;;;;;;3.53;2.37;;;6.50;99.90;;;;;;5074994;28;20179;-74
2022/01/22 09:01:34;;;;;;;5.00;1.93;;;6.50;99.90;;;;;;5078274;28;20530;-74
2022/01/22 09:04:00;;;;;;;3.73;2.40;;;6.60;99.90;;;;;;5078051;28;20757;-74
2022/01/22 09:06:27;;;;;;;4.80;2.07;;;6.60;99.90;;;;;;5076655;28;20171;-74
2022/01/22 09:08:59;;;;;;;5.23;2.27;;;6.60;99.90;;;;;;5081319;28;20204;-74
2022/01/22 09:11:25;;;;;;;3.77;2.10;;;6.60;99.90;;;;;;5076242;28;20215;-74
2022/01/22 09:13:50;;;;;;;2.90;1.93;;;6.60;99.90;;;;;;5075135;28;20178;-74
2022/01/22 09:16:16;;;;;;;2.77;2.33;;;6.60;99.90;;;;;;5079581;28;20182;-74
2022/01/22 09:18:42;;;;;;;3.50;2.30;;;6.60;99.90;;;;;;5079973;28;20228;-75
2022/01/22 09:21:08;;;;;;;3.97;2.50;;;6.60;99.90;;;;;;5077101;28;20205;-74
2022/01/22 09:23:34;;;;;;;3.50;2.37;;;6.70;99.90;;;;;;5081126;28;20255;-74
2022/01/22 09:26:00;;;;;;;5.13;2.67;;;6.70;99.90;;;;;;5082373;28;20174;-74
2022/01/22 09:28:26;;;;;;;3.30;2.57;;;6.70;99.90;;;;;;5083391;28;20170;-74
2022/01/22 09:30:53;;;;;;;4.73;2.70;;;6.70;99.90;;;;;;5081008;28;20206;-75
2022/01/22 09:33:18;;;;;;;5.13;3.27;;;6.70;99.90;;;;;;5084969;28;20182;-74
2022/01/22 09:35:44;;;;;;;3.47;2.80;;;6.70;99.90;;;;;;5083325;28;20277;-75
2022/01/22 09:38:10;;;;;;;4.10;2.60;;;6.70;99.90;;;;;;5086084;28;20264;-74
2022/01/22 09:40:36;;;;;;;5.27;3.07;;;6.70;99.90;;;;;;5082685;28;20565;-74
2022/01/22 09:43:01;;;;;;;4.43;2.67;;;6.80;99.90;;;;;;5087026;28;20181;-75
2022/01/22 09:45:29;;;;;;;3.43;2.57;;;6.80;99.90;;;;;;5069207;28;20603;-74
2022/01/22 09:47:58;;;;;;;4.67;2.60;;;6.80;99.90;;;;;;5076608;28;20174;-74
2022/01/22 09:50:25;;;;;;;3.80;2.53;;;6.80;99.90;;;;;;5074495;28;20231;-74
2022/01/22 09:52:50;;;;;;;3.40;2.60;;;6.80;99.90;;;;;;5070900;28;20684;-74
2022/01/22 09:55:17;;;;;;;2.60;2.33;;;6.80;99.90;;;;;;5072241;28;20199;-74
2022/01/22 09:57:44;;;;;;;3.27;2.40;;;6.80;99.90;;;;;;5072900;28;20186;-74
2022/01/22 10:00:12;;;;;;;2.60;2.30;;;6.80;99.90;;;;;;5071925;28;20198;-74
2022/01/22 10:02:44;;;;;;;4.13;1.93;;;6.80;99.90;;;;;;5078014;28;20204;-74
2022/01/22 10:05:37;;;;;;;1.80;1.70;;;6.80;99.90;;;;;;5076865;28;20202;-74
2022/01/22 10:08:27;;;;;;;3.40;2.37;;;6.80;99.90;;;;;;5069827;28;20178;-74
2022/01/22 10:10:53;;;;;;;2.80;2.00;;;6.80;99.90;;;;;;5080180;28;20252;-74
2022/01/22 10:13:43;;;;;;;3.10;1.90;;;6.80;99.90;;;;;;5080934;28;20602;-74
2022/01/22 10:16:24;;;;;;;2.53;1.80;;;6.90;99.90;;;;;;5078595;28;20224;-74
2022/01/22 10:19:15;;;;;;;3.27;1.80;;;6.80;99.90;;;;;;5078989;28;20178;-74
2022/01/22 10:21:47;;;;;;;2.27;1.90;;;6.90;99.90;;;;;;5076985;28;20273;-74
2022/01/22 10:24:38;;;;;;;1.70;1.60;;;6.90;99.90;;;;;;5085128;28;20202;-74
2022/01/22 10:27:39;;;;;;;2.40;1.80;;;6.90;99.90;;;;;;5078812;28;20223;-74
2022/01/22 10:30:15;;;;;;;2.07;1.50;;;6.90;99.90;;;;;;5082525;28;20301;-74
2022/01/22 10:32:48;;;;;;;1.67;1.57;;;6.90;99.90;;;;;;5082318;28;20193;-74
2022/01/22 10:35:22;;;;;;;1.90;1.30;;;6.90;99.90;;;;;;5083108;28;20202;-74
2022/01/22 10:37:54;;;;;;;1.50;1.03;;;7.00;99.90;;;;;;5084826;28;20190;-74
2022/01/22 10:40:27;;;;;;;1.70;1.07;;;7.00;99.90;;;;;;5078071;28;20280;-74
2022/01/22 10:43:10;;;;;;;1.17;1.07;;;7.00;99.90;;;;;;5088100;28;20184;-74
2022/01/22 10:45:39;;;;;;;2.00;1.00;;;7.00;99.90;;;;;;5075496;28;20179;-74
2022/01/22 10:48:16;;;;;;;1.77;1.20;;;7.00;99.90;;;;;;5076051;28;20194;-74
2022/01/22 10:50:43;;;;;;;2.57;1.20;;;7.00;99.90;;;;;;5079245;28;20204;-74
2022/01/22 10:53:09;;;;;;;1.83;0.87;;;7.00;99.90;;;;;;5071572;28;20171;-74
2022/01/22 10:56:02;;;;;;;1.97;1.10;;;7.10;99.90;;;;;;5068365;28;20186;-74
2022/01/22 10:58:29;;;;;;;1.70;0.80;;;7.10;99.90;;;;;;5072711;28;20181;-74
2022/01/22 11:01:00;;;;;;;1.40;0.70;;;7.10;99.90;;;;;;5070150;28;20195;-74
2022/01/22 11:03:28;;;;;;;0.60;0.60;;;7.10;99.90;;;;;;5070246;28;20369;-74
2022/01/22 11:05:54;;;;;;;0.60;0.60;;;7.10;99.90;;;;;;5070295;28;20183;-74
2022/01/22 11:08:20;;;;;;;0.60;0.60;;;7.10;99.90;;;;;;5077935;28;20236;-74
2022/01/22 11:10:46;;;;;;;1.27;0.50;;;7.10;99.90;;;;;;5073652;28;20198;-74
2022/01/22 11:13:12;;;;;;;1.00;0.57;;;7.10;99.90;;;;;;5079003;28;20270;-74
2022/01/22 11:15:43;;;;;;;0.70;0.60;;;7.10;99.90;;;;;;5078836;28;20189;-74
2022/01/22 11:18:11;;;;;;;1.70;0.80;;;7.10;99.90;;;;;;5076496;28;20171;-74
2022/01/22 11:20:38;;;;;;;0.90;0.50;;;7.00;99.90;;;;;;5072934;28;20545;-74
2022/01/22 11:23:04;;;;;;;1.70;0.60;;;7.10;99.90;;;;;;5080211;28;20198;-74
2022/01/22 11:25:33;;;;;;;0.60;0.60;;;7.10;99.90;;;;;;5081942;28;20179;-74
2022/01/22 11:28:00;;;;;;;2.10;0.70;;;7.10;99.90;;;;;;5077903;28;20193;-74
2022/01/22 11:30:28;;;;;;;0.73;0.73;;;7.10;99.90;;;;;;5081580;28;20285;-74
2022/01/22 11:32:59;;;;;;;0.57;0.57;;;7.10;99.90;;;;;;5081332;28;20190;-74
2022/01/22 11:35:51;;;;;;;1.33;0.80;;;7.20;99.90;;;;;;5078498;28;20196;-74
2022/01/22 11:38:26;;;;;;;0.50;0.40;;;7.20;99.90;;;;;;5081012;28;20192;-74
2022/01/22 11:41:05;;;;;;;0.50;0.30;;;7.20;99.90;;;;;;5083322;28;20194;-74
2022/01/22 11:44:14;;;;;;;2.23;0.33;;;7.20;99.90;;;;;;5084141;28;20205;-74
2022/01/22 11:46:52;;;;;;;0.40;0.30;;;7.10;99.90;;;;;;5081329;28;20227;-74
2022/01/22 11:49:25;;;;;;;0.80;0.50;;;7.10;99.90;;;;;;5083222;28;20181;-74
2022/01/22 11:52:10;;;;;;;0.73;0.30;;;7.00;99.90;;;;;;5082708;28;20166;-74
2022/01/22 11:55:00;;;;;;;1.83;1.30;;;7.00;99.90;;;;;;5076757;28;20191;-74
2022/01/22 11:57:31;;;;;;;2.43;0.50;;;7.00;99.90;;;;;;5084101;28;20193;-74
2022/01/22 12:00:16;;;;;;;0.63;0.60;;;7.00;99.90;;;;;;5086928;28;20198;-74
2022/01/22 12:02:42;;;;;;;0.53;0.40;;;7.10;99.90;;;;;;5085938;28;20217;-74
2022/01/22 12:05:07;;;;;;;1.23;0.50;;;7.10;99.90;;;;;;5090062;28;20210;-74
2022/01/22 12:07:36;;;;;;;0.43;0.40;;;7.10;99.90;;;;;;5078440;28;20242;-74
2022/01/22 12:10:32;;;;;;;1.47;0.30;;;7.10;99.90;;;;;;5077337;28;20194;-74
2022/01/22 12:16:06;;;;;;;5.63;1.00;;;7.10;99.90;;;;;;5075589;28;20549;-74
2022/01/22 12:18:40;;;;;;;1.83;0.50;;;7.20;99.90;;;;;;5083571;28;20247;-74
2022/01/22 12:23:32;;;;;;;1.40;0.40;;;7.10;99.90;;;;;;5081274;28;20210;-75
2022/01/22 12:26:00;;;;;;;0.43;0.40;;;7.20;99.90;;;;;;5076970;28;20179;-75
2022/01/22 12:28:43;;;;;;;1.53;0.40;;;7.20;99.90;;;;;;5075207;28;20549;-75
2022/01/22 12:31:15;;;;;;;2.93;0.47;;;7.20;99.90;;;;;;5074430;28;20216;-75
2022/01/22 12:33:40;;;;;;;1.53;0.40;;;7.20;99.90;;;;;;5077535;28;20178;-75
2022/01/22 12:36:16;;;;;;;0.77;0.33;;;7.20;99.90;;;;;;5078114;28;20182;-75
2022/01/22 12:38:50;;;;;;;0.60;0.53;;;7.20;99.90;;;;;;5078492;28;20182;-75
2022/01/22 12:41:35;;;;;;;1.43;0.47;;;7.20;99.90;;;;;;5076400;28;20193;-75
2022/01/22 12:44:09;;;;;;;2.20;0.40;;;7.20;99.90;;;;;;5078720;28;20201;-75
2022/01/22 12:46:35;;;;;;;0.80;0.50;;;7.20;99.90;;;;;;5079335;28;20273;-75
2022/01/22 12:49:07;;;;;;;0.90;0.60;;;7.20;99.90;;;;;;5080452;28;20182;-75
2022/01/22 12:51:33;;;;;;;2.13;0.57;;;7.20;99.90;;;;;;5081262;28;20178;-75
2022/01/22 12:54:00;;;;;;;0.30;0.30;;;7.20;99.90;;;;;;5078816;28;20178;-74
2022/01/22 12:59:06;;;;;;;2.93;0.40;;;7.20;99.90;;;;;;5084335;28;20265;-75
2022/01/22 13:01:34;;;;;;;0.60;0.40;;;7.20;99.90;;;;;;5082904;28;20671;-74
2022/01/22 13:04:02;;;;;;;1.73;0.50;;;7.20;99.90;;;;;;5078782;28;20199;-75
2022/01/22 13:06:42;;;;;;;1.40;0.40;;;7.20;99.90;;;;;;5082934;28;20220;-75
2022/01/22 13:09:10;;;;;;;1.97;0.33;;;7.20;99.90;;;;;;5083647;28;20174;-75
2022/01/22 13:11:45;;;;;;;1.73;0.30;;;7.10;99.90;;;;;;5081192;28;20269;-74
2022/01/22 13:14:11;;;;;;;2.23;0.50;;;7.10;99.90;;;;;;5079902;28;20196;-75
2022/01/22 13:16:49;;;;;;;2.53;0.50;;;7.10;99.90;;;;;;5086275;28;20185;-75
2022/01/22 13:19:15;;;;;;;2.57;0.27;;;7.10;99.90;;;;;;5085086;28;20182;-75
2022/01/22 13:21:49;;;;;;;1.13;0.30;;;7.10;99.90;;;;;;5084816;28;20174;-75
2022/01/22 13:24:15;;;;;;;0.40;0.40;;;7.10;99.90;;;;;;5071967;28;20276;-75
2022/01/22 13:27:12;;;;;;;0.53;0.40;;;7.10;99.90;;;;;;5074372;28;20683;-75
2022/01/22 13:29:41;;;;;;;0.57;0.40;;;7.00;99.90;;;;;;5072495;28;20239;-75
2022/01/22 13:32:15;;;;;;;0.40;0.40;;;7.10;99.90;;;;;;5076251;28;20287;-75
2022/01/22 13:34:56;;;;;;;0.97;0.67;;;7.10;99.90;;;;;;5070220;28;20201;-75
2022/01/22 13:40:23;;;;;;;2.80;0.70;;;7.10;99.90;;;;;;5074735;28;20194;-75
2022/01/22 13:48:31;;;;;;;0.67;0.60;;;7.20;99.90;;;;;;5077414;28;20178;-75
2022/01/22 13:50:57;;;;;;;1.50;0.50;;;7.10;99.90;;;;;;5074966;28;20228;-75
2022/01/22 13:53:22;;;;;;;3.97;0.70;;;7.20;99.90;;;;;;5079604;28;20327;-75
2022/01/22 13:56:08;;;;;;;4.20;1.10;;;7.20;99.90;;;;;;5079448;28;20281;-75
2022/01/22 13:58:34;;;;;;;1.60;0.87;;;7.20;99.90;;;;;;5075855;28;20170;-75
2022/01/22 14:01:06;;;;;;;3.23;1.00;;;7.20;99.90;;;;;;5076237;28;20290;-75
2022/01/22 14:03:40;;;;;;;2.47;0.90;;;7.10;99.90;;;;;;5076418;28;20244;-75
2022/01/22 14:06:06;;;;;;;1.93;1.40;;;7.10;99.90;;;;;;5084163;28;20170;-75
2022/01/22 14:08:34;;;;;;;2.37;1.50;;;7.20;99.90;;;;;;5078548;28;20185;-74
2022/01/22 14:11:13;;;;;;;1.50;1.03;;;7.20;99.90;;;;;;5079274;28;20195;-75
2022/01/22 14:13:40;;;;;;;2.57;1.30;;;7.20;99.90;;;;;;5080961;28;20185;-74
2022/01/22 14:16:18;;;;;;;2.40;1.10;;;7.20;99.90;;;;;;5080247;28;20182;-75
2022/01/22 14:18:44;;;;;;;2.33;0.80;;;7.20;99.90;;;;;;5075790;28;20185;-75
2022/01/22 14:21:16;;;;;;;1.00;0.97;;;7.20;99.90;;;;;;5080565;28;20202;-75
2022/01/22 14:23:42;;;;;;;2.67;0.90;;;7.10;99.90;;;;;;5081853;28;20571;-76
2022/01/22 14:26:28;;;;;;;0.93;0.80;;;7.10;99.90;;;;;;5085308;28;20186;-75
2022/01/22 14:29:07;;;;;;;2.27;1.00;;;7.10;99.90;;;;;;5079427;28;20183;-75
2022/01/22 14:31:43;;;;;;;1.23;0.87;;;7.10;99.90;;;;;;5084879;28;20277;-75
2022/01/22 14:34:28;;;;;;;1.90;0.97;;;7.10;99.90;;;;;;5081447;28;20181;-75
2022/01/22 14:36:54;;;;;;;1.67;1.00;;;7.10;99.90;;;;;;5083212;28;20190;-74
2022/01/22 14:44:44;;;;;;;2.30;1.20;;;7.00;99.90;;;;;;5073061;28;20225;-75
2022/01/22 14:47:12;;;;;;;3.13;1.13;;;7.10;99.90;;;;;;5071921;28;20183;-75
2022/01/22 14:49:44;;;;;;;0.93;0.60;;;7.10;99.90;;;;;;5075532;28;20448;-75
2022/01/22 14:52:12;;;;;;;1.90;0.80;;;7.10;99.90;;;;;;5079004;28;20250;-76
2022/01/22 14:54:40;;;;;;;3.17;0.80;;;7.10;99.90;;;;;;5075700;28;20191;-75
2022/01/22 14:57:07;;;;;;;0.93;0.80;;;7.10;99.90;;;;;;5072955;28;20186;-75
2022/01/22 14:59:34;;;;;;;1.60;0.80;;;7.00;99.90;;;;;;5073553;28;20230;-75
2022/01/22 15:02:00;;;;;;;4.53;1.10;;;7.00;99.90;;;;;;5076914;28;20191;-75
2022/01/22 15:04:27;;;;;;;3.33;0.80;;;7.00;99.90;;;;;;5081466;28;20250;-75
2022/01/22 15:06:53;;;;;;;1.20;0.87;;;7.00;99.90;;;;;;5078437;28;20175;-75